createdAt,value
2023-04-12T00:00:53.045Z,1.27
2023-04-12T00:03:21.080Z,1.65
2023-04-12T00:05:54.396Z,1.35
2023-04-12T00:08:26.347Z,1.48
2023-04-12T00:10:55.055Z,2.00
2023-04-12T00:13:21.457Z,1.50
2023-04-12T00:15:47.954Z,1.98
2023-04-12T00:18:14.451Z,1.70
2023-04-12T00:20:41.085Z,1.63
2023-04-12T00:23:09.697Z,1.55
2023-04-12T00:25:38.537Z,1.83
2023-04-12T00:28:05.932Z,1.38
2023-04-12T00:30:32.528Z,2.08
2023-04-12T00:32:59.323Z,1.88
2023-04-12T00:35:25.916Z,2.17
2023-04-12T00:37:52.352Z,4.18
2023-04-12T00:40:18.826Z,2.30
2023-04-12T00:42:45.464Z,1.48
2023-04-12T00:45:12.603Z,1.67
2023-04-12T00:47:40.392Z,1.70
2023-04-12T00:50:08.408Z,1.70
2023-04-12T00:52:35.718Z,1.20
2023-04-12T00:55:07.167Z,1.67
2023-04-12T00:57:38.556Z,1.30
2023-04-12T01:00:08.764Z,1.30
2023-04-12T01:02:35.519Z,0.93
2023-04-12T01:05:02.779Z,1.20
2023-04-12T01:07:51.502Z,1.10
2023-04-12T01:10:31.915Z,1.00
2023-04-12T01:13:35.924Z,1.10
2023-04-12T01:16:40.769Z,1.48
2023-04-12T01:19:34.193Z,1.50
2023-04-12T01:22:29.017Z,1.70
2023-04-12T01:25:16.284Z,1.20
2023-04-12T01:27:56.381Z,1.58
2023-04-12T01:30:26.759Z,1.90
2023-04-12T01:32:55.593Z,1.30
2023-04-12T01:35:26.380Z,1.10
2023-04-12T01:37:53.322Z,1.27
2023-04-12T01:40:21.361Z,1.63
2023-04-12T01:42:47.803Z,1.40
2023-04-12T01:45:14.227Z,1.30
2023-04-12T01:47:40.778Z,1.20
2023-04-12T01:50:32.840Z,1.27
2023-04-12T01:53:42.896Z,1.15
2023-04-12T01:56:10.730Z,1.58
2023-04-12T01:58:40.823Z,1.35
2023-04-12T02:01:08.982Z,1.85
2023-04-12T02:03:37.540Z,1.42
2023-04-12T02:06:05.782Z,1.83
2023-04-12T02:08:32.352Z,1.98
2023-04-12T02:10:58.777Z,1.80
2023-04-12T02:13:26.667Z,1.70
2023-04-12T02:15:55.224Z,2.00
2023-04-12T02:18:21.712Z,1.50
2023-04-12T02:20:49.795Z,1.73
2023-04-12T02:23:16.255Z,1.98
2023-04-12T02:25:44.112Z,1.65
2023-04-12T02:28:10.518Z,1.75
2023-04-12T02:30:38.364Z,1.95
2023-04-12T02:33:06.187Z,1.70
2023-04-12T02:35:32.879Z,1.73
2023-04-12T02:37:59.296Z,1.88
2023-04-12T02:40:25.908Z,2.17
2023-04-12T02:42:52.567Z,2.03
2023-04-12T02:45:19.034Z,1.60
2023-04-12T02:47:45.520Z,1.42
2023-04-12T02:50:12.006Z,1.33
2023-04-12T02:52:38.462Z,1.70
2023-04-12T02:55:05.350Z,1.63
2023-04-12T02:57:31.782Z,1.67
2023-04-12T02:59:58.251Z,1.50
2023-04-12T03:02:24.913Z,2.03
2023-04-12T03:04:51.414Z,1.55
2023-04-12T03:07:21.614Z,1.50
2023-04-12T03:09:50.543Z,1.50
2023-04-12T03:12:17.140Z,1.55
2023-04-12T03:14:43.619Z,1.33
2023-04-12T03:17:10.828Z,1.40
2023-04-12T03:19:37.342Z,1.17
2023-04-12T03:22:04.583Z,1.20
2023-04-12T03:24:34.154Z,1.20
2023-04-12T03:27:05.420Z,1.20
2023-04-12T03:29:32.144Z,1.25
2023-04-12T03:31:59.600Z,1.35
2023-04-12T03:34:32.972Z,1.20
2023-04-12T03:37:00.885Z,1.42
2023-04-12T03:39:27.821Z,1.17
2023-04-12T03:41:54.766Z,1.45
2023-04-12T03:44:21.404Z,1.63
2023-04-12T03:46:48.814Z,1.40
2023-04-12T03:49:16.699Z,1.50
2023-04-12T03:51:43.907Z,1.60
2023-04-12T03:54:11.430Z,1.70
2023-04-12T03:56:38.669Z,1.50
2023-04-12T03:59:07.677Z,2.05
2023-04-12T04:01:35.532Z,1.90
2023-04-12T04:04:03.660Z,1.45
2023-04-12T04:06:30.496Z,1.90
2023-04-12T04:08:57.836Z,1.40
2023-04-12T04:11:25.528Z,1.50
2023-04-12T04:13:52.025Z,1.67
2023-04-12T04:16:18.751Z,1.30
2023-04-12T04:18:45.386Z,1.10
2023-04-12T04:21:11.893Z,1.13
2023-04-12T04:23:44.800Z,1.23
2023-04-12T04:26:11.843Z,1.20
2023-04-12T04:28:39.229Z,1.50
2023-04-12T04:31:06.389Z,1.20
2023-04-12T04:33:33.564Z,1.17
2023-04-12T04:36:00.138Z,1.13
2023-04-12T04:38:26.836Z,1.40
2023-04-12T04:40:53.379Z,1.25
2023-04-12T04:43:20.193Z,1.23
2023-04-12T04:45:50.478Z,1.05
2023-04-12T04:48:18.772Z,1.23
2023-04-12T04:50:45.209Z,1.30
2023-04-12T04:53:11.657Z,1.40
2023-04-12T04:55:38.189Z,1.70
2023-04-12T04:58:06.365Z,1.70
2023-04-12T05:00:35.302Z,1.60
2023-04-12T05:03:03.383Z,1.63
2023-04-12T05:05:30.371Z,1.75
2023-04-12T05:07:58.107Z,1.40
2023-04-12T05:10:24.779Z,1.40
2023-04-12T05:12:51.213Z,1.83
2023-04-12T05:15:19.061Z,2.03
2023-04-12T05:17:45.792Z,1.98
2023-04-12T05:20:12.267Z,1.60
2023-04-12T05:22:38.714Z,1.67
2023-04-12T05:25:06.271Z,2.28
2023-04-12T05:27:32.705Z,2.10
2023-04-12T05:29:59.847Z,2.38
2023-04-12T05:32:26.454Z,2.30
2023-04-12T05:34:53.014Z,2.40
2023-04-12T05:37:19.533Z,1.92
2023-04-12T05:39:46.056Z,2.28
2023-04-12T05:42:12.502Z,1.90
2023-04-12T05:44:39.529Z,2.00
2023-04-12T05:47:06.062Z,2.42
2023-04-12T05:49:32.508Z,1.90
2023-04-12T05:51:59.182Z,2.28
2023-04-12T05:54:25.951Z,2.70
2023-04-12T05:56:55.173Z,2.40
2023-04-12T05:59:22.282Z,2.35
2023-04-12T06:01:48.841Z,2.40
2023-04-12T06:04:15.871Z,1.88
2023-04-12T06:06:43.560Z,2.20
2023-04-12T06:09:10.662Z,2.20
2023-04-12T06:11:39.048Z,2.50
2023-04-12T06:14:06.277Z,2.63
2023-04-12T06:16:32.772Z,2.40
2023-04-12T06:18:59.486Z,2.38
2023-04-12T06:21:26.794Z,2.13
2023-04-12T06:23:53.232Z,2.15
2023-04-12T06:26:19.681Z,2.15
2023-04-12T06:28:46.112Z,2.28
2023-04-12T06:31:12.658Z,2.03
2023-04-12T06:33:39.208Z,1.90
2023-04-12T06:36:06.269Z,2.13
2023-04-12T06:38:32.915Z,2.00
2023-04-12T06:40:59.384Z,2.00
2023-04-12T06:43:25.822Z,2.60
2023-04-12T06:45:52.329Z,2.33
2023-04-12T06:48:19.118Z,1.92
2023-04-12T06:50:45.708Z,2.20
2023-04-12T06:53:13.523Z,2.33
2023-04-12T06:55:40.679Z,2.42
2023-04-12T06:58:07.329Z,2.72
2023-04-12T07:00:34.628Z,2.30
2023-04-12T07:03:01.662Z,2.90
2023-04-12T07:05:28.324Z,2.15
2023-04-12T07:07:54.822Z,2.38
2023-04-12T07:10:21.299Z,2.35
2023-04-12T07:12:47.797Z,3.13
2023-04-12T07:15:14.243Z,2.60
2023-04-12T07:17:40.843Z,2.38
2023-04-12T07:20:07.982Z,2.22
2023-04-12T07:22:34.450Z,2.25
2023-04-12T07:25:00.896Z,2.88
2023-04-12T07:27:27.382Z,2.50
2023-04-12T07:29:54.524Z,2.25
2023-04-12T07:32:21.277Z,3.10
2023-04-12T07:34:47.927Z,3.17
2023-04-12T07:37:14.619Z,3.00
2023-04-12T07:39:41.354Z,2.50
2023-04-12T07:42:07.944Z,2.38
2023-04-12T07:44:37.124Z,2.65
2023-04-12T07:49:31.456Z,3.17
2023-04-12T07:51:59.066Z,2.15
2023-04-12T07:54:29.123Z,2.35
2023-04-12T07:57:00.629Z,2.03
2023-04-12T07:59:27.107Z,2.03
2023-04-12T08:01:53.604Z,2.45
2023-04-12T08:04:20.664Z,1.98
2023-04-12T08:06:47.226Z,1.80
2023-04-12T08:09:13.749Z,2.00
2023-04-12T08:11:40.212Z,2.00
2023-04-12T08:14:06.764Z,1.48
2023-04-12T08:16:33.437Z,1.67
2023-04-12T08:18:59.934Z,1.67
2023-04-12T08:21:27.575Z,2.08
2023-04-12T08:23:54.117Z,2.08
2023-04-12T08:26:21.206Z,1.60
2023-04-12T08:28:48.637Z,1.85
2023-04-12T08:31:16.304Z,1.27
2023-04-12T08:33:42.785Z,1.75
2023-04-12T08:36:09.669Z,2.00
2023-04-12T08:38:45.811Z,1.45
2023-04-12T08:43:45.320Z,1.42
2023-04-12T08:48:44.308Z,1.63
2023-04-12T08:51:14.557Z,1.90
2023-04-12T08:53:41.346Z,1.92
2023-04-12T08:56:13.604Z,1.65
2023-04-12T08:58:51.133Z,1.50
2023-04-12T09:01:20.259Z,2.03
2023-04-12T09:03:47.252Z,2.08
2023-04-12T09:06:14.288Z,2.13
2023-04-12T09:08:55.179Z,2.22
2023-04-12T09:11:28.863Z,2.40
2023-04-12T09:13:56.728Z,2.22
2023-04-12T09:16:41.306Z,2.00
2023-04-12T09:19:08.892Z,2.50
2023-04-12T09:21:36.474Z,2.70
2023-04-12T09:24:14.663Z,2.78
2023-04-12T09:26:41.834Z,2.80
2023-04-12T09:29:23.236Z,2.80
2023-04-12T09:32:02.683Z,2.30
2023-04-12T09:34:33.517Z,2.40
2023-04-12T09:36:59.971Z,2.65
2023-04-12T09:39:33.529Z,2.40
2023-04-12T09:42:14.842Z,2.47
2023-04-12T09:44:51.877Z,2.42
2023-04-12T09:47:18.302Z,2.10
2023-04-12T09:49:45.023Z,1.60
2023-04-12T09:52:13.376Z,1.60
2023-04-12T09:54:48.540Z,1.02
2023-04-12T09:57:18.159Z,0.98
2023-04-12T09:59:48.669Z,0.75
2023-04-12T10:02:17.345Z,0.90
2023-04-12T10:04:45.695Z,0.90
2023-04-12T10:07:14.533Z,1.00
2023-04-12T10:09:41.608Z,0.90
2023-04-12T10:12:09.536Z,0.90
2023-04-12T10:14:36.994Z,0.80
2023-04-12T10:17:04.640Z,0.98
2023-04-12T10:19:33.458Z,1.60
2023-04-12T10:22:01.528Z,1.40
2023-04-12T10:24:28.885Z,1.27
2023-04-12T10:26:57.235Z,1.63
2023-04-12T10:29:30.020Z,1.55
2023-04-12T10:32:22.844Z,1.73
2023-04-12T10:34:54.602Z,1.70
2023-04-12T10:37:21.361Z,2.20
2023-04-12T10:39:55.127Z,2.45
2023-04-12T10:42:27.253Z,2.50
2023-04-12T10:45:23.187Z,3.75
2023-04-12T10:47:49.672Z,3.35
2023-04-12T10:50:20.717Z,3.75
2023-04-12T10:53:18.338Z,3.80
2023-04-12T10:55:45.533Z,4.88
2023-04-12T10:58:50.564Z,3.78
2023-04-12T11:01:18.536Z,3.40
2023-04-12T11:04:10.445Z,3.50
2023-04-12T11:06:52.845Z,3.45
2023-04-12T11:09:25.269Z,3.92
2023-04-12T11:11:57.314Z,3.30
2023-04-12T11:14:28.757Z,3.30
2023-04-12T11:17:13.725Z,2.28
2023-04-12T11:19:44.698Z,2.05
2023-04-12T11:22:13.570Z,2.58
2023-04-12T11:24:42.759Z,2.90
2023-04-12T11:27:10.056Z,2.10
2023-04-12T11:29:36.692Z,2.20
2023-04-12T11:32:04.737Z,1.98
2023-04-12T11:34:35.085Z,2.15
2023-04-12T11:37:05.721Z,1.75
2023-04-12T11:39:33.387Z,2.10
2023-04-12T11:42:01.970Z,2.40
2023-04-12T11:44:31.894Z,1.83
2023-04-12T11:47:04.065Z,1.95
2023-04-12T11:49:30.628Z,2.47
2023-04-12T11:52:04.912Z,1.90
2023-04-12T11:54:31.846Z,1.60
2023-04-12T11:56:58.597Z,1.75
2023-04-12T11:59:35.078Z,1.80
2023-04-12T12:02:17.145Z,2.10
2023-04-12T12:04:49.668Z,1.98
2023-04-12T12:07:17.846Z,1.88
2023-04-12T12:09:46.078Z,2.00
2023-04-12T12:12:13.804Z,2.28
2023-04-12T12:14:41.255Z,2.22
2023-04-12T12:17:16.254Z,2.15
2023-04-12T12:19:44.603Z,2.38
2023-04-12T12:22:12.174Z,2.38
2023-04-12T12:24:55.338Z,2.30
2023-04-12T12:27:23.789Z,1.70
2023-04-12T12:29:55.016Z,1.75
2023-04-12T12:32:23.399Z,2.05
2023-04-12T12:34:52.268Z,2.10
2023-04-12T12:37:21.601Z,2.72
2023-04-12T12:40:16.689Z,1.85
2023-04-12T12:42:51.269Z,2.05
2023-04-12T12:45:22.634Z,2.20
2023-04-12T12:47:51.700Z,1.80
2023-04-12T12:50:21.975Z,2.80
2023-04-12T12:52:50.495Z,1.50
2023-04-12T12:55:17.990Z,1.92
2023-04-12T12:57:52.208Z,2.33
2023-04-12T13:00:29.280Z,2.10
2023-04-12T13:02:56.412Z,1.95
2023-04-12T13:05:23.451Z,2.40
2023-04-12T13:07:50.090Z,2.30
2023-04-12T13:10:16.570Z,2.20
2023-04-12T13:12:43.024Z,2.20
2023-04-12T13:15:21.353Z,2.58
2023-04-12T13:17:52.242Z,2.50
2023-04-12T13:20:18.833Z,1.70
2023-04-12T13:22:45.338Z,2.08
2023-04-12T13:25:11.762Z,1.92
2023-04-12T13:27:38.339Z,2.00
2023-04-12T13:30:05.546Z,2.25
2023-04-12T13:32:32.130Z,1.95
2023-04-12T13:34:58.575Z,1.40
2023-04-12T13:37:24.982Z,1.48
2023-04-12T13:39:52.521Z,1.73
2023-04-12T13:42:18.976Z,1.42
2023-04-12T13:44:45.717Z,1.92
2023-04-12T13:47:12.587Z,1.55
2023-04-12T13:49:39.088Z,1.60
2023-04-12T13:52:05.786Z,1.38
2023-04-12T13:54:32.385Z,1.83
2023-04-12T13:56:59.249Z,1.58
2023-04-12T13:59:26.711Z,1.20
2023-04-12T14:01:53.555Z,1.13
2023-04-12T14:04:20.599Z,1.48
2023-04-12T14:06:47.080Z,1.25
2023-04-12T14:09:30.784Z,1.50
2023-04-12T14:11:58.730Z,1.30
2023-04-12T14:14:26.229Z,1.30
2023-04-12T14:16:54.773Z,1.17
2023-04-12T14:19:21.834Z,1.30
2023-04-12T14:21:48.909Z,1.10
2023-04-12T14:24:16.776Z,1.30
2023-04-12T14:26:43.699Z,1.73
2023-04-12T14:29:10.277Z,1.00
2023-04-12T14:31:37.610Z,1.30
2023-04-12T14:34:04.934Z,1.17
2023-04-12T14:36:31.843Z,1.10
2023-04-12T14:38:58.454Z,1.08
2023-04-12T14:41:25.633Z,1.33
2023-04-12T14:43:52.079Z,1.63
2023-04-12T14:46:18.597Z,1.25
2023-04-12T14:48:45.084Z,1.10
2023-04-12T14:51:11.496Z,1.20
2023-04-12T14:53:37.912Z,1.23
2023-04-12T14:56:04.587Z,1.50
2023-04-12T14:58:31.624Z,1.25
2023-04-12T15:01:00.153Z,1.25
2023-04-12T15:03:29.786Z,1.30
2023-04-12T15:05:58.099Z,1.40
2023-04-12T15:08:24.614Z,1.10
2023-04-12T15:10:51.300Z,1.30
2023-04-12T15:13:18.058Z,1.27
2023-04-12T15:15:47.219Z,1.00
2023-04-12T15:18:14.470Z,1.10
2023-04-12T15:20:41.038Z,1.00
2023-04-12T15:23:07.557Z,1.00
2023-04-12T15:25:33.988Z,1.10
2023-04-12T15:28:01.375Z,0.90
2023-04-12T15:30:28.343Z,1.17
2023-04-12T15:32:54.807Z,1.17
2023-04-12T15:35:26.547Z,0.82
2023-04-12T15:37:55.346Z,0.82
2023-04-12T15:40:22.781Z,0.70
2023-04-12T15:42:49.505Z,0.90
2023-04-12T15:45:16.105Z,0.98
2023-04-12T15:47:42.587Z,0.85
2023-04-12T15:50:09.576Z,1.20
2023-04-12T15:52:36.354Z,0.82
2023-04-12T15:55:05.083Z,0.80
2023-04-12T15:57:32.322Z,0.85
2023-04-12T15:59:59.727Z,0.90
2023-04-12T16:02:26.624Z,0.65
2023-04-12T16:04:55.880Z,0.68
2023-04-12T16:07:22.701Z,0.70
2023-04-12T16:09:49.417Z,1.10
2023-04-12T16:12:16.017Z,0.70
2023-04-12T16:14:42.470Z,0.90
2023-04-12T16:17:08.963Z,0.95
2023-04-12T16:19:35.353Z,0.80
2023-04-12T16:22:03.621Z,0.57
2023-04-12T16:24:30.174Z,0.80
2023-04-12T16:26:57.147Z,0.80
2023-04-12T16:29:24.021Z,0.70
2023-04-12T16:31:51.543Z,0.80
2023-04-12T16:34:21.754Z,0.52
2023-04-12T16:36:48.614Z,0.70
2023-04-12T16:39:15.128Z,0.95
2023-04-12T16:41:41.623Z,0.90
2023-04-12T16:44:08.038Z,0.95
2023-04-12T16:46:34.499Z,0.60
2023-04-12T16:49:03.760Z,0.90
2023-04-12T16:51:37.043Z,0.70
2023-04-12T16:54:04.164Z,0.80
2023-04-12T16:56:30.626Z,1.15
2023-04-12T16:58:58.919Z,0.90
2023-04-12T17:01:25.384Z,1.02
2023-04-12T17:03:52.195Z,0.90
2023-04-12T17:06:19.461Z,0.90
2023-04-12T17:08:46.624Z,0.73
2023-04-12T17:11:14.060Z,0.60
2023-04-12T17:13:40.664Z,0.85
2023-04-12T17:16:07.715Z,0.80
2023-04-12T17:18:34.748Z,1.00
2023-04-12T17:21:01.231Z,1.00
2023-04-12T17:23:28.252Z,0.90
2023-04-12T17:25:56.051Z,0.85
2023-04-12T17:28:22.421Z,0.93
2023-04-12T17:30:48.904Z,0.80
2023-04-12T17:33:18.177Z,1.27
2023-04-12T17:35:45.176Z,1.05
2023-04-12T17:38:11.588Z,0.98
2023-04-12T17:40:38.406Z,1.17
2023-04-12T17:43:04.953Z,0.93
2023-04-12T17:45:31.590Z,0.93
2023-04-12T17:47:58.020Z,0.98
2023-04-12T17:50:24.664Z,1.10
2023-04-12T17:52:51.698Z,1.10
2023-04-12T17:55:23.031Z,1.00
2023-04-12T17:57:49.962Z,1.15
2023-04-12T18:00:18.879Z,1.25
2023-04-12T18:02:46.598Z,1.33
2023-04-12T18:05:13.384Z,1.10
2023-04-12T18:07:40.225Z,1.10
2023-04-12T18:10:08.976Z,1.10
2023-04-12T18:12:35.984Z,1.10
2023-04-12T18:15:04.177Z,0.82
2023-04-12T18:17:30.651Z,1.00
2023-04-12T18:19:57.121Z,0.80
2023-04-12T18:22:23.589Z,1.00
2023-04-12T18:24:50.021Z,0.80
2023-04-12T18:27:16.442Z,1.13
2023-04-12T18:29:42.889Z,0.70
2023-04-12T18:32:09.314Z,0.63
2023-04-12T18:34:36.058Z,0.60
2023-04-12T18:37:04.063Z,0.60
2023-04-12T18:39:30.555Z,0.90
2023-04-12T18:41:57.133Z,0.80
2023-04-12T18:44:23.635Z,1.10
2023-04-12T18:46:50.086Z,2.30
2023-04-12T18:49:16.921Z,1.10
2023-04-12T18:51:43.328Z,0.80
2023-04-12T18:54:14.958Z,0.50
2023-04-12T18:56:42.384Z,0.68
2023-04-12T18:59:11.317Z,0.55
2023-04-12T19:01:37.752Z,0.50
2023-04-12T19:04:05.760Z,0.50
2023-04-12T19:06:32.970Z,0.55
2023-04-12T19:08:59.425Z,0.55
2023-04-12T19:11:26.599Z,1.00
2023-04-12T19:13:53.581Z,0.70
2023-04-12T19:16:20.030Z,0.50
2023-04-12T19:18:46.513Z,0.70
2023-04-12T19:21:12.940Z,1.00
2023-04-12T19:23:39.493Z,0.70
2023-04-12T19:26:06.350Z,0.55
2023-04-12T19:28:32.745Z,0.40
2023-04-12T19:30:59.258Z,0.80
2023-04-12T19:33:25.809Z,0.73
2023-04-12T19:35:55.170Z,0.80
2023-04-12T19:38:22.122Z,0.38
2023-04-12T19:40:50.801Z,0.50
2023-04-12T19:43:18.669Z,0.60
2023-04-12T19:45:45.224Z,0.80
2023-04-12T19:48:13.008Z,0.52
2023-04-12T19:50:39.755Z,0.90
2023-04-12T19:53:06.315Z,1.25
2023-04-12T19:55:32.731Z,1.77
2023-04-12T19:57:59.393Z,1.40
2023-04-12T20:00:27.214Z,1.13
2023-04-12T20:02:54.315Z,1.40
2023-04-12T20:05:22.465Z,1.30
2023-04-12T20:07:49.834Z,1.20
2023-04-12T20:10:17.468Z,1.90
2023-04-12T20:12:44.411Z,2.58
2023-04-12T20:15:14.398Z,1.48
2023-04-12T20:17:42.642Z,1.30
2023-04-12T20:20:14.278Z,1.30
2023-04-12T20:22:42.386Z,0.90
2023-04-12T20:25:13.024Z,1.48
2023-04-12T20:27:39.424Z,1.13
2023-04-12T20:30:08.665Z,1.00
2023-04-12T20:32:36.027Z,0.82
2023-04-12T20:35:03.818Z,1.52
2023-04-12T20:37:30.298Z,1.10
2023-04-12T20:39:56.754Z,1.27
2023-04-12T20:42:23.198Z,1.15
2023-04-12T20:44:49.657Z,1.10
2023-04-12T20:47:17.663Z,1.85
2023-04-12T20:49:46.084Z,1.20
2023-04-12T20:52:16.826Z,1.20
2023-04-12T20:54:45.442Z,1.55
2023-04-12T20:57:13.010Z,1.30
2023-04-12T20:59:39.572Z,1.20
2023-04-12T21:02:06.087Z,1.75
2023-04-12T21:04:35.961Z,1.40
2023-04-12T21:07:03.137Z,1.80
2023-04-12T21:09:30.066Z,1.65
2023-04-12T21:11:57.855Z,2.03
2023-04-12T21:14:24.726Z,1.48
2023-04-12T21:16:51.172Z,1.52
2023-04-12T21:19:18.550Z,1.23
2023-04-12T21:21:46.042Z,1.30
2023-04-12T21:24:13.197Z,1.40
2023-04-12T21:26:40.244Z,1.20
2023-04-12T21:29:06.866Z,1.10
2023-04-12T21:31:33.573Z,0.90
2023-04-12T21:34:02.142Z,0.82
2023-04-12T21:36:28.741Z,0.88
2023-04-12T21:38:55.898Z,0.70
2023-04-12T21:41:23.701Z,0.70
2023-04-12T21:43:50.220Z,0.93
2023-04-12T21:46:16.856Z,0.73
2023-04-12T21:48:43.503Z,0.80
2023-04-12T21:51:10.209Z,0.80
2023-04-12T21:53:36.707Z,0.80
2023-04-12T21:56:03.319Z,0.57
2023-04-12T21:58:29.969Z,0.70
2023-04-12T22:00:58.212Z,0.68
2023-04-12T22:03:24.950Z,0.60
2023-04-12T22:06:03.508Z,0.60
2023-04-12T22:08:32.890Z,0.93
2023-04-12T22:11:00.405Z,0.60
2023-04-12T22:13:27.356Z,0.68
2023-04-12T22:15:54.073Z,0.65
2023-04-12T22:18:20.575Z,0.90
2023-04-12T22:20:48.039Z,0.50
2023-04-12T22:23:17.786Z,0.65
2023-04-12T22:25:45.426Z,1.00
2023-04-12T22:28:12.234Z,0.73
2023-04-12T22:30:38.881Z,0.65
2023-04-12T22:33:05.438Z,0.70
2023-04-12T22:35:31.858Z,0.60
2023-04-12T22:37:58.358Z,0.60
2023-04-12T22:40:24.828Z,0.60
2023-04-12T22:42:52.305Z,0.50
2023-04-12T22:45:18.777Z,0.50
2023-04-12T22:47:45.757Z,0.60
2023-04-12T22:50:12.962Z,0.50
2023-04-12T22:52:40.347Z,0.68
2023-04-12T22:55:08.668Z,0.65
2023-04-12T22:57:36.422Z,0.63
2023-04-12T23:00:05.890Z,0.63
2023-04-12T23:02:33.731Z,0.50
2023-04-12T23:05:02.393Z,0.82
2023-04-12T23:07:30.176Z,0.50
2023-04-12T23:09:57.586Z,0.75
2023-04-12T23:12:24.502Z,1.02
2023-04-12T23:14:51.048Z,0.60
2023-04-12T23:17:19.697Z,0.70
2023-04-12T23:19:46.405Z,0.60
2023-04-12T23:22:22.422Z,0.80
2023-04-12T23:24:51.031Z,0.80
2023-04-12T23:27:18.248Z,0.60
2023-04-12T23:29:44.656Z,0.60
2023-04-12T23:32:12.082Z,0.70
2023-04-12T23:34:38.509Z,0.93
2023-04-12T23:37:04.948Z,0.70
2023-04-12T23:39:31.400Z,0.60
2023-04-12T23:41:57.840Z,0.60
2023-04-12T23:44:24.969Z,1.00
2023-04-12T23:46:51.501Z,0.80
2023-04-12T23:49:18.017Z,0.75
2023-04-12T23:51:44.609Z,0.80
2023-04-12T23:54:11.155Z,0.70
2023-04-12T23:56:37.631Z,0.60
2023-04-12T23:59:04.324Z,0.80
